sensor_id;sensor_type;location;lat;lon;timestamp;pressure;altitude;pressure_sealevel;temperature;humidity
74958;BME280;63741;42.624;26.276;2024-01-16T00:01:44;98357.03;;;2.37;77.86
74958;BME280;63741;42.624;26.276;2024-01-16T00:04:12;98350.13;;;2.36;77.99
74958;BME280;63741;42.624;26.276;2024-01-16T00:06:40;98353.63;;;2.49;77.62
74958;BME280;63741;42.624;26.276;2024-01-16T00:09:10;98359.22;;;2.70;76.96
74958;BME280;63741;42.624;26.276;2024-01-16T00:11:41;98357.69;;;2.53;78.65
74958;BME280;63741;42.624;26.276;2024-01-16T00:14:08;98357.78;;;2.78;77.08
74958;BME280;63741;42.624;26.276;2024-01-16T00:16:45;98359.84;;;2.73;76.98
74958;BME280;63741;42.624;26.276;2024-01-16T00:19:13;98373.47;;;2.91;76.75
74958;BME280;63741;42.624;26.276;2024-01-16T00:21:41;98364.06;;;3.01;75.31
74958;BME280;63741;42.624;26.276;2024-01-16T00:24:08;98358.34;;;3.09;75.23
74958;BME280;63741;42.624;26.276;2024-01-16T00:26:35;98351.97;;;3.00;75.91
74958;BME280;63741;42.624;26.276;2024-01-16T00:29:02;98347.31;;;2.78;76.68
74958;BME280;63741;42.624;26.276;2024-01-16T00:31:30;98346.66;;;2.62;77.66
74958;BME280;63741;42.624;26.276;2024-01-16T00:33:57;98341.31;;;2.51;78.18
74958;BME280;63741;42.624;26.276;2024-01-16T00:36:24;98339.34;;;2.55;78.54
74958;BME280;63741;42.624;26.276;2024-01-16T00:38:51;98343.44;;;2.71;77.52
74958;BME280;63741;42.624;26.276;2024-01-16T00:41:18;98349.06;;;2.65;77.83
74958;BME280;63741;42.624;26.276;2024-01-16T00:43:45;98342.53;;;2.72;77.05
74958;BME280;63741;42.624;26.276;2024-01-16T00:46:12;98335.94;;;2.79;76.94
74958;BME280;63741;42.624;26.276;2024-01-16T00:48:39;98339.19;;;2.83;76.56
74958;BME280;63741;42.624;26.276;2024-01-16T00:51:06;98342.97;;;2.92;76.30
74958;BME280;63741;42.624;26.276;2024-01-16T00:53:33;98339.38;;;2.80;76.56
74958;BME280;63741;42.624;26.276;2024-01-16T00:56:06;98339.63;;;3.02;75.83
74958;BME280;63741;42.624;26.276;2024-01-16T00:58:33;98334.19;;;3.06;75.77
74958;BME280;63741;42.624;26.276;2024-01-16T01:01:00;98334.91;;;3.20;74.62
74958;BME280;63741;42.624;26.276;2024-01-16T01:03:27;98328.34;;;3.02;75.97
74958;BME280;63741;42.624;26.276;2024-01-16T01:05:54;98327.81;;;2.97;75.59
74958;BME280;63741;42.624;26.276;2024-01-16T01:08:22;98317.06;;;3.01;76.18
74958;BME280;63741;42.624;26.276;2024-01-16T01:10:49;98311.63;;;2.92;77.50
74958;BME280;63741;42.624;26.276;2024-01-16T01:13:16;98311.72;;;2.90;77.47
74958;BME280;63741;42.624;26.276;2024-01-16T01:15:43;98304.38;;;2.70;78.91
74958;BME280;63741;42.624;26.276;2024-01-16T01:18:10;98301.91;;;2.68;79.19
74958;BME280;63741;42.624;26.276;2024-01-16T01:20:37;98310.41;;;2.58;79.62
74958;BME280;63741;42.624;26.276;2024-01-16T01:23:04;98314.50;;;2.62;79.72
74958;BME280;63741;42.624;26.276;2024-01-16T01:25:31;98303.97;;;2.76;77.87
74958;BME280;63741;42.624;26.276;2024-01-16T01:27:58;98301.69;;;2.97;76.75
74958;BME280;63741;42.624;26.276;2024-01-16T01:30:25;98290.50;;;3.20;75.55
74958;BME280;63741;42.624;26.276;2024-01-16T01:32:52;98288.63;;;3.22;75.41
74958;BME280;63741;42.624;26.276;2024-01-16T01:35:19;98280.06;;;3.08;76.44
74958;BME280;63741;42.624;26.276;2024-01-16T01:37:46;98282.59;;;3.09;75.59
74958;BME280;63741;42.624;26.276;2024-01-16T01:40:13;98288.84;;;3.07;76.06
74958;BME280;63741;42.624;26.276;2024-01-16T01:42:42;98296.34;;;3.11;75.38
74958;BME280;63741;42.624;26.276;2024-01-16T01:45:10;98290.94;;;3.14;74.80
74958;BME280;63741;42.624;26.276;2024-01-16T01:47:39;98291.34;;;3.21;75.49
74958;BME280;63741;42.624;26.276;2024-01-16T01:50:07;98299.16;;;3.34;74.66
74958;BME280;63741;42.624;26.276;2024-01-16T01:52:37;98295.09;;;3.29;74.77
74958;BME280;63741;42.624;26.276;2024-01-16T01:55:07;98286.59;;;3.39;74.28
74958;BME280;63741;42.624;26.276;2024-01-16T01:57:36;98288.50;;;3.24;74.71
74958;BME280;63741;42.624;26.276;2024-01-16T02:00:03;98291.44;;;3.07;75.48
74958;BME280;63741;42.624;26.276;2024-01-16T02:02:42;98279.03;;;3.10;74.90
74958;BME280;63741;42.624;26.276;2024-01-16T02:05:10;98282.97;;;3.28;74.71
74958;BME280;63741;42.624;26.276;2024-01-16T02:07:38;98276.50;;;3.21;74.93
74958;BME280;63741;42.624;26.276;2024-01-16T02:10:05;98274.81;;;3.08;75.24
74958;BME280;63741;42.624;26.276;2024-01-16T02:12:33;98277.25;;;2.98;75.47
74958;BME280;63741;42.624;26.276;2024-01-16T02:15:00;98271.69;;;2.90;76.14
74958;BME280;63741;42.624;26.276;2024-01-16T02:17:27;98276.31;;;2.86;76.32
74958;BME280;63741;42.624;26.276;2024-01-16T02:19:54;98269.09;;;2.90;76.20
74958;BME280;63741;42.624;26.276;2024-01-16T02:22:25;98283.94;;;3.02;75.02
74958;BME280;63741;42.624;26.276;2024-01-16T02:24:55;98284.75;;;2.90;76.06
74958;BME280;63741;42.624;26.276;2024-01-16T02:27:23;98279.97;;;2.96;75.73
74958;BME280;63741;42.624;26.276;2024-01-16T02:29:50;98284.22;;;2.85;75.79
74958;BME280;63741;42.624;26.276;2024-01-16T02:32:17;98287.47;;;2.75;76.41
74958;BME280;63741;42.624;26.276;2024-01-16T02:34:44;98285.28;;;2.69;77.04
74958;BME280;63741;42.624;26.276;2024-01-16T02:37:11;98282.69;;;2.82;76.25
74958;BME280;63741;42.624;26.276;2024-01-16T02:39:38;98283.28;;;2.60;77.32
74958;BME280;63741;42.624;26.276;2024-01-16T02:42:05;98287.75;;;2.58;77.38
74958;BME280;63741;42.624;26.276;2024-01-16T02:44:32;98292.91;;;2.60;77.67
74958;BME280;63741;42.624;26.276;2024-01-16T02:46:59;98293.13;;;2.69;77.27
74958;BME280;63741;42.624;26.276;2024-01-16T02:49:27;98290.81;;;2.65;77.39
74958;BME280;63741;42.624;26.276;2024-01-16T02:51:54;98296.13;;;2.76;76.66
74958;BME280;63741;42.624;26.276;2024-01-16T02:54:22;98312.34;;;2.68;77.13
74958;BME280;63741;42.624;26.276;2024-01-16T02:56:49;98315.72;;;2.43;78.52
74958;BME280;63741;42.624;26.276;2024-01-16T02:59:16;98318.34;;;2.56;78.41
74958;BME280;63741;42.624;26.276;2024-01-16T03:01:43;98317.84;;;2.51;79.22
74958;BME280;63741;42.624;26.276;2024-01-16T03:04:10;98312.41;;;2.67;78.10
74958;BME280;63741;42.624;26.276;2024-01-16T03:06:38;98298.75;;;2.89;76.29
74958;BME280;63741;42.624;26.276;2024-01-16T03:09:05;98304.50;;;2.94;75.92
74958;BME280;63741;42.624;26.276;2024-01-16T03:11:33;98305.66;;;3.15;75.03
74958;BME280;63741;42.624;26.276;2024-01-16T03:14:00;98301.06;;;3.06;75.89
74958;BME280;63741;42.624;26.276;2024-01-16T03:16:27;98305.47;;;3.18;74.25
74958;BME280;63741;42.624;26.276;2024-01-16T03:18:54;98313.50;;;3.15;74.55
74958;BME280;63741;42.624;26.276;2024-01-16T03:21:22;98311.91;;;3.25;74.30
74958;BME280;63741;42.624;26.276;2024-01-16T03:23:49;98322.81;;;3.32;73.69
74958;BME280;63741;42.624;26.276;2024-01-16T03:26:17;98317.56;;;3.32;74.68
74958;BME280;63741;42.624;26.276;2024-01-16T03:28:44;98323.94;;;3.41;73.50
74958;BME280;63741;42.624;26.276;2024-01-16T03:31:13;98324.16;;;3.25;75.13
74958;BME280;63741;42.624;26.276;2024-01-16T03:33:41;98322.28;;;3.27;74.36
74958;BME280;63741;42.624;26.276;2024-01-16T03:36:10;98327.06;;;3.20;74.73
74958;BME280;63741;42.624;26.276;2024-01-16T03:38:38;98332.22;;;3.22;75.43
74958;BME280;63741;42.624;26.276;2024-01-16T03:41:05;98336.06;;;3.16;75.45
74958;BME280;63741;42.624;26.276;2024-01-16T03:43:34;98329.81;;;3.06;75.95
74958;BME280;63741;42.624;26.276;2024-01-16T03:46:01;98332.00;;;3.25;74.60
74958;BME280;63741;42.624;26.276;2024-01-16T03:48:29;98343.38;;;3.37;73.85
74958;BME280;63741;42.624;26.276;2024-01-16T03:50:56;98342.44;;;3.38;74.15
74958;BME280;63741;42.624;26.276;2024-01-16T03:53:23;98353.09;;;3.47;73.22
74958;BME280;63741;42.624;26.276;2024-01-16T03:55:50;98346.41;;;3.43;73.50
74958;BME280;63741;42.624;26.276;2024-01-16T03:58:17;98356.44;;;3.49;73.02
74958;BME280;63741;42.624;26.276;2024-01-16T04:00:44;98345.81;;;3.40;74.04
74958;BME280;63741;42.624;26.276;2024-01-16T04:03:11;98355.31;;;3.28;73.59
74958;BME280;63741;42.624;26.276;2024-01-16T04:05:39;98354.34;;;3.42;73.52
74958;BME280;63741;42.624;26.276;2024-01-16T04:08:06;98365.13;;;3.12;75.19
74958;BME280;63741;42.624;26.276;2024-01-16T04:10:34;98368.88;;;3.08;74.41
74958;BME280;63741;42.624;26.276;2024-01-16T04:13:01;98367.41;;;3.16;74.57
74958;BME280;63741;42.624;26.276;2024-01-16T04:15:28;98382.47;;;3.25;73.92
74958;BME280;63741;42.624;26.276;2024-01-16T04:17:55;98385.00;;;3.40;73.29
74958;BME280;63741;42.624;26.276;2024-01-16T04:20:23;98407.66;;;3.39;73.41
74958;BME280;63741;42.624;26.276;2024-01-16T04:22:50;98411.53;;;3.21;75.47
74958;BME280;63741;42.624;26.276;2024-01-16T04:25:16;98412.25;;;3.10;75.84
74958;BME280;63741;42.624;26.276;2024-01-16T04:27:44;98435.03;;;3.08;75.43
74958;BME280;63741;42.624;26.276;2024-01-16T04:30:11;98437.88;;;3.18;75.76
74958;BME280;63741;42.624;26.276;2024-01-16T04:32:39;98437.34;;;3.13;75.37
74958;BME280;63741;42.624;26.276;2024-01-16T04:35:06;98432.22;;;3.24;75.35
74958;BME280;63741;42.624;26.276;2024-01-16T04:37:34;98433.84;;;2.87;76.48
74958;BME280;63741;42.624;26.276;2024-01-16T04:40:01;98437.69;;;2.94;76.34
74958;BME280;63741;42.624;26.276;2024-01-16T04:42:27;98449.50;;;3.26;75.00
74958;BME280;63741;42.624;26.276;2024-01-16T04:44:55;98452.31;;;3.23;74.62
74958;BME280;63741;42.624;26.276;2024-01-16T04:47:22;98468.47;;;3.16;75.93
74958;BME280;63741;42.624;26.276;2024-01-16T04:49:49;98476.56;;;3.38;73.80
74958;BME280;63741;42.624;26.276;2024-01-16T04:52:16;98468.22;;;3.46;73.42
74958;BME280;63741;42.624;26.276;2024-01-16T04:54:43;98458.47;;;3.22;74.97
74958;BME280;63741;42.624;26.276;2024-01-16T04:57:12;98471.78;;;3.45;74.38
74958;BME280;63741;42.624;26.276;2024-01-16T04:59:39;98476.69;;;3.49;73.20
74958;BME280;63741;42.624;26.276;2024-01-16T05:02:06;98497.16;;;3.43;73.70
74958;BME280;63741;42.624;26.276;2024-01-16T05:04:36;98482.78;;;3.75;76.97
74958;BME280;63741;42.624;26.276;2024-01-16T05:07:04;98499.81;;;3.55;76.51
74958;BME280;63741;42.624;26.276;2024-01-16T05:09:31;98498.03;;;3.69;77.36
74958;BME280;63741;42.624;26.276;2024-01-16T05:11:58;98495.66;;;3.53;78.38
74958;BME280;63741;42.624;26.276;2024-01-16T05:14:27;98499.00;;;3.68;77.20
74958;BME280;63741;42.624;26.276;2024-01-16T05:16:54;98499.94;;;3.54;77.73
74958;BME280;63741;42.624;26.276;2024-01-16T05:19:21;98517.59;;;3.63;77.63
74958;BME280;63741;42.624;26.276;2024-01-16T05:21:48;98518.63;;;4.37;81.24
74958;BME280;63741;42.624;26.276;2024-01-16T05:24:14;98518.63;;;4.37;80.05
74958;BME280;63741;42.624;26.276;2024-01-16T05:26:41;98531.47;;;4.53;81.94
74958;BME280;63741;42.624;26.276;2024-01-16T05:29:08;98513.41;;;4.98;83.20
74958;BME280;63741;42.624;26.276;2024-01-16T05:31:40;98518.50;;;5.12;83.83
74958;BME280;63741;42.624;26.276;2024-01-16T05:34:11;98528.56;;;5.29;80.66
74958;BME280;63741;42.624;26.276;2024-01-16T05:36:38;98525.25;;;5.27;81.22
74958;BME280;63741;42.624;26.276;2024-01-16T05:39:05;98540.97;;;5.27;80.61
74958;BME280;63741;42.624;26.276;2024-01-16T05:41:32;98541.41;;;5.45;79.41
74958;BME280;63741;42.624;26.276;2024-01-16T05:44:00;98549.63;;;5.41;77.99
74958;BME280;63741;42.624;26.276;2024-01-16T05:46:33;98545.97;;;5.54;80.68
74958;BME280;63741;42.624;26.276;2024-01-16T05:49:00;98551.38;;;5.64;78.31
74958;BME280;63741;42.624;26.276;2024-01-16T05:51:28;98540.53;;;5.69;79.77
74958;BME280;63741;42.624;26.276;2024-01-16T05:53:56;98544.50;;;5.86;79.65
74958;BME280;63741;42.624;26.276;2024-01-16T05:56:23;98538.31;;;5.87;72.72
74958;BME280;63741;42.624;26.276;2024-01-16T05:58:50;98545.50;;;5.96;73.78
74958;BME280;63741;42.624;26.276;2024-01-16T06:01:18;98542.38;;;5.91;72.03
74958;BME280;63741;42.624;26.276;2024-01-16T06:03:45;98537.16;;;6.02;74.94
74958;BME280;63741;42.624;26.276;2024-01-16T06:06:16;98531.31;;;6.10;76.00
74958;BME280;63741;42.624;26.276;2024-01-16T06:08:43;98548.63;;;6.23;75.25
74958;BME280;63741;42.624;26.276;2024-01-16T06:11:10;98539.91;;;6.79;68.63
74958;BME280;63741;42.624;26.276;2024-01-16T06:13:40;98548.66;;;6.46;72.94
74958;BME280;63741;42.624;26.276;2024-01-16T06:16:07;98563.66;;;6.77;69.55
74958;BME280;63741;42.624;26.276;2024-01-16T06:18:35;98582.72;;;7.56;66.47
74958;BME280;63741;42.624;26.276;2024-01-16T06:21:03;98603.88;;;7.87;67.21
74958;BME280;63741;42.624;26.276;2024-01-16T06:23:30;98601.44;;;8.16;63.67
74958;BME280;63741;42.624;26.276;2024-01-16T06:25:57;98618.66;;;8.20;67.18
74958;BME280;63741;42.624;26.276;2024-01-16T06:28:24;98637.97;;;8.42;66.73
74958;BME280;63741;42.624;26.276;2024-01-16T06:30:51;98634.94;;;8.67;64.39
74958;BME280;63741;42.624;26.276;2024-01-16T06:33:18;98624.19;;;8.59;61.27
74958;BME280;63741;42.624;26.276;2024-01-16T06:35:45;98639.13;;;8.79;64.84
74958;BME280;63741;42.624;26.276;2024-01-16T06:38:12;98644.00;;;8.53;65.56
74958;BME280;63741;42.624;26.276;2024-01-16T06:40:39;98648.69;;;7.76;66.08
74958;BME280;63741;42.624;26.276;2024-01-16T06:43:06;98653.00;;;7.22;67.33
74958;BME280;63741;42.624;26.276;2024-01-16T06:45:33;98651.59;;;7.07;68.50
74958;BME280;63741;42.624;26.276;2024-01-16T06:48:00;98645.63;;;6.94;67.44
74958;BME280;63741;42.624;26.276;2024-01-16T06:50:27;98653.75;;;6.91;67.83
74958;BME280;63741;42.624;26.276;2024-01-16T06:52:54;98656.13;;;7.16;66.86
74958;BME280;63741;42.624;26.276;2024-01-16T06:55:21;98656.72;;;7.20;66.67
74958;BME280;63741;42.624;26.276;2024-01-16T06:57:48;98633.22;;;7.82;65.15
74958;BME280;63741;42.624;26.276;2024-01-16T07:00:15;98661.84;;;7.32;65.53
74958;BME280;63741;42.624;26.276;2024-01-16T07:02:42;98660.91;;;7.00;64.62
74958;BME280;63741;42.624;26.276;2024-01-16T07:05:12;98666.91;;;7.02;67.43
74958;BME280;63741;42.624;26.276;2024-01-16T07:07:39;98670.25;;;6.93;66.36
74958;BME280;63741;42.624;26.276;2024-01-16T07:10:07;98679.56;;;6.86;66.78
74958;BME280;63741;42.624;26.276;2024-01-16T07:12:45;98697.25;;;6.83;65.05
74958;BME280;63741;42.624;26.276;2024-01-16T07:15:12;98690.19;;;6.95;64.83
74958;BME280;63741;42.624;26.276;2024-01-16T07:17:40;98701.75;;;7.60;64.24
74958;BME280;63741;42.624;26.276;2024-01-16T07:20:07;98702.66;;;8.34;61.33
74958;BME280;63741;42.624;26.276;2024-01-16T07:22:36;98694.53;;;8.58;57.99
74958;BME280;63741;42.624;26.276;2024-01-16T07:25:03;98716.44;;;8.80;57.87
74958;BME280;63741;42.624;26.276;2024-01-16T07:27:30;98724.69;;;8.45;58.87
74958;BME280;63741;42.624;26.276;2024-01-16T07:29:57;98722.38;;;7.76;62.09
74958;BME280;63741;42.624;26.276;2024-01-16T07:32:23;98720.25;;;7.58;60.71
74958;BME280;63741;42.624;26.276;2024-01-16T07:34:50;98754.38;;;7.49;62.74
74958;BME280;63741;42.624;26.276;2024-01-16T07:37:19;98751.28;;;7.44;61.76
74958;BME280;63741;42.624;26.276;2024-01-16T07:39:46;98762.53;;;7.46;61.19
74958;BME280;63741;42.624;26.276;2024-01-16T07:42:13;98767.13;;;7.87;59.18
74958;BME280;63741;42.624;26.276;2024-01-16T07:44:39;98773.81;;;8.67;56.17
74958;BME280;63741;42.624;26.276;2024-01-16T07:47:07;98795.31;;;9.14;54.92
74958;BME280;63741;42.624;26.276;2024-01-16T07:49:34;98799.53;;;9.47;53.21
74958;BME280;63741;42.624;26.276;2024-01-16T07:52:01;98827.72;;;9.46;52.00
74958;BME280;63741;42.624;26.276;2024-01-16T07:54:28;98825.06;;;9.46;50.49
74958;BME280;63741;42.624;26.276;2024-01-16T07:56:55;98831.28;;;9.66;51.22
74958;BME280;63741;42.624;26.276;2024-01-16T07:59:22;98834.84;;;9.25;51.09
74958;BME280;63741;42.624;26.276;2024-01-16T08:01:49;98836.44;;;8.95;53.00
74958;BME280;63741;42.624;26.276;2024-01-16T08:04:16;98840.38;;;9.01;51.58
74958;BME280;63741;42.624;26.276;2024-01-16T08:06:44;98839.75;;;9.60;51.26
74958;BME280;63741;42.624;26.276;2024-01-16T08:09:12;98852.00;;;10.01;49.46
74958;BME280;63741;42.624;26.276;2024-01-16T08:11:39;98848.78;;;9.98;50.03
74958;BME280;63741;42.624;26.276;2024-01-16T08:14:06;98864.63;;;9.98;49.67
74958;BME280;63741;42.624;26.276;2024-01-16T08:16:33;98863.28;;;10.13;49.52
74958;BME280;63741;42.624;26.276;2024-01-16T08:19:00;98874.16;;;10.20;49.50
74958;BME280;63741;42.624;26.276;2024-01-16T08:21:27;98880.41;;;10.19;47.87
74958;BME280;63741;42.624;26.276;2024-01-16T08:23:54;98877.38;;;10.23;48.92
74958;BME280;63741;42.624;26.276;2024-01-16T08:26:21;98881.56;;;10.26;46.51
74958;BME280;63741;42.624;26.276;2024-01-16T08:28:48;98909.81;;;10.25;47.41
74958;BME280;63741;42.624;26.276;2024-01-16T08:31:17;98903.38;;;9.57;49.60
74958;BME280;63741;42.624;26.276;2024-01-16T08:33:45;98911.50;;;8.91;51.31
74958;BME280;63741;42.624;26.276;2024-01-16T08:36:15;98920.41;;;8.79;51.62
74958;BME280;63741;42.624;26.276;2024-01-16T08:38:42;98928.19;;;8.48;51.92
74958;BME280;63741;42.624;26.276;2024-01-16T08:41:09;98928.31;;;8.47;52.50
74958;BME280;63741;42.624;26.276;2024-01-16T08:43:36;98933.09;;;8.42;51.37
74958;BME280;63741;42.624;26.276;2024-01-16T08:46:03;98938.25;;;8.21;51.94
74958;BME280;63741;42.624;26.276;2024-01-16T08:48:30;98932.97;;;8.21;51.96
74958;BME280;63741;42.624;26.276;2024-01-16T08:50:58;98956.56;;;8.33;51.41
74958;BME280;63741;42.624;26.276;2024-01-16T08:53:28;98945.69;;;8.38;52.08
74958;BME280;63741;42.624;26.276;2024-01-16T08:55:55;98944.94;;;8.47;51.17
74958;BME280;63741;42.624;26.276;2024-01-16T08:58:22;98955.63;;;8.23;52.68
74958;BME280;63741;42.624;26.276;2024-01-16T09:00:48;98947.22;;;8.63;51.26
74958;BME280;63741;42.624;26.276;2024-01-16T09:03:16;98944.44;;;8.97;50.10
74958;BME280;63741;42.624;26.276;2024-01-16T09:05:45;98954.41;;;9.67;49.15
74958;BME280;63741;42.624;26.276;2024-01-16T09:08:12;98942.56;;;9.82;49.08
74958;BME280;63741;42.624;26.276;2024-01-16T09:10:39;98932.78;;;9.31;49.63
74958;BME280;63741;42.624;26.276;2024-01-16T09:13:06;98948.44;;;9.65;49.27
74958;BME280;63741;42.624;26.276;2024-01-16T09:15:33;98940.00;;;9.50;49.66
74958;BME280;63741;42.624;26.276;2024-01-16T09:18:01;98955.59;;;9.74;48.24
74958;BME280;63741;42.624;26.276;2024-01-16T09:20:28;98939.34;;;9.79;47.93
74958;BME280;63741;42.624;26.276;2024-01-16T09:22:55;98951.28;;;10.04;47.56
74958;BME280;63741;42.624;26.276;2024-01-16T09:25:22;98946.56;;;9.77;46.69
74958;BME280;63741;42.624;26.276;2024-01-16T09:27:51;98937.06;;;9.65;46.73
74958;BME280;63741;42.624;26.276;2024-01-16T09:30:19;98969.81;;;9.62;47.59
74958;BME280;63741;42.624;26.276;2024-01-16T09:32:48;98944.69;;;9.68;47.03
74958;BME280;63741;42.624;26.276;2024-01-16T09:35:15;98970.31;;;9.98;46.17
74958;BME280;63741;42.624;26.276;2024-01-16T09:37:43;98964.16;;;9.87;46.11
74958;BME280;63741;42.624;26.276;2024-01-16T09:40:10;98964.00;;;9.89;47.00
74958;BME280;63741;42.624;26.276;2024-01-16T09:42:37;98959.88;;;9.96;45.35
74958;BME280;63741;42.624;26.276;2024-01-16T09:45:05;98957.31;;;10.16;44.90
74958;BME280;63741;42.624;26.276;2024-01-16T09:47:34;98959.56;;;10.20;45.46
74958;BME280;63741;42.624;26.276;2024-01-16T09:50:02;98980.84;;;10.19;45.25
74958;BME280;63741;42.624;26.276;2024-01-16T09:52:30;98969.31;;;9.99;46.88
74958;BME280;63741;42.624;26.276;2024-01-16T09:54:57;98983.25;;;10.01;46.20
74958;BME280;63741;42.624;26.276;2024-01-16T09:57:25;98993.28;;;10.28;45.29
74958;BME280;63741;42.624;26.276;2024-01-16T09:59:52;99005.66;;;10.06;45.93
74958;BME280;63741;42.624;26.276;2024-01-16T10:02:20;98995.31;;;9.94;46.27
74958;BME280;63741;42.624;26.276;2024-01-16T10:04:50;98966.00;;;9.97;45.76
74958;BME280;63741;42.624;26.276;2024-01-16T10:07:18;98995.34;;;10.03;46.03
74958;BME280;63741;42.624;26.276;2024-01-16T10:09:52;98986.34;;;10.06;45.12
74958;BME280;63741;42.624;26.276;2024-01-16T10:12:19;99000.19;;;9.98;45.64
74958;BME280;63741;42.624;26.276;2024-01-16T10:14:46;99009.03;;;9.87;45.70
74958;BME280;63741;42.624;26.276;2024-01-16T10:17:14;99019.28;;;9.81;46.01
74958;BME280;63741;42.624;26.276;2024-01-16T10:19:52;99018.06;;;10.27;45.17
74958;BME280;63741;42.624;26.276;2024-01-16T10:22:21;99027.38;;;10.10;44.66
74958;BME280;63741;42.624;26.276;2024-01-16T10:25:18;99014.09;;;10.21;44.87
74958;BME280;63741;42.624;26.276;2024-01-16T10:27:47;99024.66;;;10.42;42.95
74958;BME280;63741;42.624;26.276;2024-01-16T10:30:13;99034.06;;;10.66;43.04
74958;BME280;63741;42.624;26.276;2024-01-16T10:32:42;99042.78;;;10.56;43.17
74958;BME280;63741;42.624;26.276;2024-01-16T10:35:11;99025.94;;;10.57;42.02
74958;BME280;63741;42.624;26.276;2024-01-16T10:37:54;99039.66;;;10.72;42.14
74958;BME280;63741;42.624;26.276;2024-01-16T10:40:25;99039.72;;;11.01;41.04
74958;BME280;63741;42.624;26.276;2024-01-16T10:45:23;99033.34;;;11.04;39.75
74958;BME280;63741;42.624;26.276;2024-01-16T10:50:35;99056.22;;;10.44;40.47
74958;BME280;63741;42.624;26.276;2024-01-16T10:53:06;99054.50;;;10.54;40.47
74958;BME280;63741;42.624;26.276;2024-01-16T10:55:50;99055.31;;;10.95;38.51
74958;BME280;63741;42.624;26.276;2024-01-16T10:58:22;99072.22;;;11.32;37.63
74958;BME280;63741;42.624;26.276;2024-01-16T11:00:52;99057.47;;;11.39;36.15
74958;BME280;63741;42.624;26.276;2024-01-16T11:03:46;99078.66;;;11.49;36.39
74958;BME280;63741;42.624;26.276;2024-01-16T11:06:15;99059.72;;;11.34;35.65
74958;BME280;63741;42.624;26.276;2024-01-16T11:08:47;99077.50;;;11.13;37.10
74958;BME280;63741;42.624;26.276;2024-01-16T11:11:15;99093.00;;;11.27;38.04
74958;BME280;63741;42.624;26.276;2024-01-16T11:13:43;99112.38;;;11.37;37.53
74958;BME280;63741;42.624;26.276;2024-01-16T11:16:11;99111.44;;;11.58;38.46
74958;BME280;63741;42.624;26.276;2024-01-16T11:18:38;99120.06;;;11.41;35.25
74958;BME280;63741;42.624;26.276;2024-01-16T11:21:09;99121.94;;;10.79;38.98
74958;BME280;63741;42.624;26.276;2024-01-16T11:23:42;99117.22;;;10.73;38.88
74958;BME280;63741;42.624;26.276;2024-01-16T11:26:34;99122.16;;;10.66;39.32
74958;BME280;63741;42.624;26.276;2024-01-16T11:31:57;99127.78;;;11.03;39.80
74958;BME280;63741;42.624;26.276;2024-01-16T11:37:14;99121.72;;;10.61;40.54
74958;BME280;63741;42.624;26.276;2024-01-16T11:39:41;99130.25;;;10.44;41.59
74958;BME280;63741;42.624;26.276;2024-01-16T11:42:08;99136.78;;;10.19;42.42
74958;BME280;63741;42.624;26.276;2024-01-16T11:47:04;99138.28;;;9.79;42.61
74958;BME280;63741;42.624;26.276;2024-01-16T11:49:32;99161.50;;;9.65;41.71
74958;BME280;63741;42.624;26.276;2024-01-16T11:51:59;99160.06;;;9.60;42.05
74958;BME280;63741;42.624;26.276;2024-01-16T11:54:26;99156.22;;;9.97;42.74
74958;BME280;63741;42.624;26.276;2024-01-16T11:59:50;99169.00;;;9.80;42.94
74958;BME280;63741;42.624;26.276;2024-01-16T12:02:36;99175.53;;;9.65;42.22
74958;BME280;63741;42.624;26.276;2024-01-16T12:05:05;99188.00;;;9.63;42.23
74958;BME280;63741;42.624;26.276;2024-01-16T12:07:45;99178.69;;;9.48;41.57
74958;BME280;63741;42.624;26.276;2024-01-16T12:10:12;99175.47;;;9.44;44.36
74958;BME280;63741;42.624;26.276;2024-01-16T12:12:40;99172.72;;;9.34;43.07
74958;BME280;63741;42.624;26.276;2024-01-16T12:15:13;99180.59;;;9.57;43.95
74958;BME280;63741;42.624;26.276;2024-01-16T12:18:00;99171.09;;;9.66;42.08
74958;BME280;63741;42.624;26.276;2024-01-16T12:20:29;99180.19;;;10.05;40.90
74958;BME280;63741;42.624;26.276;2024-01-16T12:23:02;99165.63;;;10.10;41.57
74958;BME280;63741;42.624;26.276;2024-01-16T12:25:31;99180.69;;;9.99;41.44
74958;BME280;63741;42.624;26.276;2024-01-16T12:28:20;99184.44;;;10.17;42.73
74958;BME280;63741;42.624;26.276;2024-01-16T12:30:50;99215.63;;;10.02;41.60
74958;BME280;63741;42.624;26.276;2024-01-16T12:33:22;99211.41;;;10.64;41.79
74958;BME280;63741;42.624;26.276;2024-01-16T12:35:49;99221.22;;;10.20;41.47
74958;BME280;63741;42.624;26.276;2024-01-16T12:38:17;99211.53;;;10.09;42.26
74958;BME280;63741;42.624;26.276;2024-01-16T12:40:49;99216.94;;;10.08;40.86
74958;BME280;63741;42.624;26.276;2024-01-16T12:43:18;99224.59;;;9.68;42.04
74958;BME280;63741;42.624;26.276;2024-01-16T12:45:45;99201.56;;;9.70;41.18
74958;BME280;63741;42.624;26.276;2024-01-16T12:48:12;99216.41;;;9.16;44.22
74958;BME280;63741;42.624;26.276;2024-01-16T12:50:40;99214.94;;;9.01;42.28
74958;BME280;63741;42.624;26.276;2024-01-16T12:53:10;99215.91;;;9.00;41.92
74958;BME280;63741;42.624;26.276;2024-01-16T12:55:39;99220.59;;;9.07;43.54
74958;BME280;63741;42.624;26.276;2024-01-16T12:58:20;99223.13;;;9.20;42.27
74958;BME280;63741;42.624;26.276;2024-01-16T13:00:51;99225.13;;;9.05;41.55
74958;BME280;63741;42.624;26.276;2024-01-16T13:03:23;99237.84;;;9.00;42.60
74958;BME280;63741;42.624;26.276;2024-01-16T13:05:59;99240.94;;;8.83;42.22
74958;BME280;63741;42.624;26.276;2024-01-16T13:08:27;99236.63;;;8.82;44.20
74958;BME280;63741;42.624;26.276;2024-01-16T13:11:05;99250.34;;;8.98;43.80
74958;BME280;63741;42.624;26.276;2024-01-16T13:13:33;99253.78;;;8.88;43.25
74958;BME280;63741;42.624;26.276;2024-01-16T13:16:02;99259.69;;;9.14;41.28
74958;BME280;63741;42.624;26.276;2024-01-16T13:18:29;99252.84;;;8.89;42.18
74958;BME280;63741;42.624;26.276;2024-01-16T13:20:58;99265.81;;;8.56;41.84